sensor_id;sensor_type;location;lat;lon;timestamp;temperature;humidity
11136;DHT22;5622;50.840;4.948;2022-09-19T00:01:41;10.90;99.90
11136;DHT22;5622;50.840;4.948;2022-09-19T00:04:11;10.90;99.90
11136;DHT22;5622;50.840;4.948;2022-09-19T00:06:41;10.90;99.90
11136;DHT22;5622;50.840;4.948;2022-09-19T00:09:10;10.90;99.90
11136;DHT22;5622;50.840;4.948;2022-09-19T00:11:39;10.90;99.90
11136;DHT22;5622;50.840;4.948;2022-09-19T00:14:08;10.90;99.90
11136;DHT22;5622;50.840;4.948;2022-09-19T00:16:40;10.90;99.90
11136;DHT22;5622;50.840;4.948;2022-09-19T00:19:11;10.80;99.90
11136;DHT22;5622;50.840;4.948;2022-09-19T00:21:45;10.80;99.90
11136;DHT22;5622;50.840;4.948;2022-09-19T00:24:15;10.80;99.90
11136;DHT22;5622;50.840;4.948;2022-09-19T00:27:00;10.90;99.90
11136;DHT22;5622;50.840;4.948;2022-09-19T00:29:30;10.80;99.90
11136;DHT22;5622;50.840;4.948;2022-09-19T00:31:59;10.80;99.90
11136;DHT22;5622;50.840;4.948;2022-09-19T00:34:27;10.80;99.90
11136;DHT22;5622;50.840;4.948;2022-09-19T00:36:56;10.80;99.90
11136;DHT22;5622;50.840;4.948;2022-09-19T00:39:23;10.80;99.90
11136;DHT22;5622;50.840;4.948;2022-09-19T00:41:50;10.80;99.90
11136;DHT22;5622;50.840;4.948;2022-09-19T00:44:56;10.70;99.90
11136;DHT22;5622;50.840;4.948;2022-09-19T00:47:34;10.70;99.90
11136;DHT22;5622;50.840;4.948;2022-09-19T00:50:06;10.70;99.90
11136;DHT22;5622;50.840;4.948;2022-09-19T00:52:39;10.70;99.90
11136;DHT22;5622;50.840;4.948;2022-09-19T00:55:07;10.70;99.90
11136;DHT22;5622;50.840;4.948;2022-09-19T00:57:58;10.70;99.90
11136;DHT22;5622;50.840;4.948;2022-09-19T01:00:25;10.70;99.90
11136;DHT22;5622;50.840;4.948;2022-09-19T01:02:54;10.70;99.90
11136;DHT22;5622;50.840;4.948;2022-09-19T01:05:27;10.70;99.90
11136;DHT22;5622;50.840;4.948;2022-09-19T01:08:27;10.70;99.90
11136;DHT22;5622;50.840;4.948;2022-09-19T01:11:08;10.70;99.90
11136;DHT22;5622;50.840;4.948;2022-09-19T01:13:45;10.70;99.90
11136;DHT22;5622;50.840;4.948;2022-09-19T01:16:20;10.70;99.90
11136;DHT22;5622;50.840;4.948;2022-09-19T01:18:55;10.70;99.90
11136;DHT22;5622;50.840;4.948;2022-09-19T01:21:31;10.60;99.90
11136;DHT22;5622;50.840;4.948;2022-09-19T01:24:50;10.60;99.90
11136;DHT22;5622;50.840;4.948;2022-09-19T01:27:33;10.60;99.90
11136;DHT22;5622;50.840;4.948;2022-09-19T01:30:07;10.60;99.90
11136;DHT22;5622;50.840;4.948;2022-09-19T01:32:38;10.50;99.90
11136;DHT22;5622;50.840;4.948;2022-09-19T01:35:12;10.50;99.90
11136;DHT22;5622;50.840;4.948;2022-09-19T01:37:45;10.90;99.90
11136;DHT22;5622;50.840;4.948;2022-09-19T01:40:16;10.50;99.90
11136;DHT22;5622;50.840;4.948;2022-09-19T01:42:49;10.50;99.90
11136;DHT22;5622;50.840;4.948;2022-09-19T01:45:24;10.50;99.90
11136;DHT22;5622;50.840;4.948;2022-09-19T01:48:02;10.50;99.90
11136;DHT22;5622;50.840;4.948;2022-09-19T01:50:49;10.50;99.90
11136;DHT22;5622;50.840;4.948;2022-09-19T01:53:27;10.50;99.90
11136;DHT22;5622;50.840;4.948;2022-09-19T01:56:04;10.50;99.90
11136;DHT22;5622;50.840;4.948;2022-09-19T01:58:39;10.40;99.90
11136;DHT22;5622;50.840;4.948;2022-09-19T02:01:14;10.40;99.90
11136;DHT22;5622;50.840;4.948;2022-09-19T02:03:47;10.40;99.90
11136;DHT22;5622;50.840;4.948;2022-09-19T02:06:20;10.40;99.90
11136;DHT22;5622;50.840;4.948;2022-09-19T02:08:54;10.40;99.90
11136;DHT22;5622;50.840;4.948;2022-09-19T02:11:24;10.40;99.90
11136;DHT22;5622;50.840;4.948;2022-09-19T02:13:57;10.40;99.90
11136;DHT22;5622;50.840;4.948;2022-09-19T02:16:30;10.40;99.90
11136;DHT22;5622;50.840;4.948;2022-09-19T02:19:03;10.40;99.90
11136;DHT22;5622;50.840;4.948;2022-09-19T02:21:35;10.40;99.90
11136;DHT22;5622;50.840;4.948;2022-09-19T02:24:06;10.40;99.90
11136;DHT22;5622;50.840;4.948;2022-09-19T02:26:36;10.40;99.90
11136;DHT22;5622;50.840;4.948;2022-09-19T02:29:07;10.40;99.90
11136;DHT22;5622;50.840;4.948;2022-09-19T02:31:36;10.40;99.90
11136;DHT22;5622;50.840;4.948;2022-09-19T02:34:05;10.40;99.90
11136;DHT22;5622;50.840;4.948;2022-09-19T02:36:39;10.40;99.90
11136;DHT22;5622;50.840;4.948;2022-09-19T02:39:15;10.40;99.90
11136;DHT22;5622;50.840;4.948;2022-09-19T02:41:47;10.40;99.90
11136;DHT22;5622;50.840;4.948;2022-09-19T02:44:22;10.30;99.90
11136;DHT22;5622;50.840;4.948;2022-09-19T02:46:56;10.40;99.90
11136;DHT22;5622;50.840;4.948;2022-09-19T02:49:35;10.40;99.90
11136;DHT22;5622;50.840;4.948;2022-09-19T02:52:07;10.40;99.90
11136;DHT22;5622;50.840;4.948;2022-09-19T02:54:39;10.40;99.90
11136;DHT22;5622;50.840;4.948;2022-09-19T02:57:10;10.50;99.90
11136;DHT22;5622;50.840;4.948;2022-09-19T02:59:42;10.40;99.90
11136;DHT22;5622;50.840;4.948;2022-09-19T03:02:15;10.50;99.90
11136;DHT22;5622;50.840;4.948;2022-09-19T03:04:46;10.50;99.90
11136;DHT22;5622;50.840;4.948;2022-09-19T03:07:17;10.50;99.90
11136;DHT22;5622;50.840;4.948;2022-09-19T03:09:53;10.50;99.90
11136;DHT22;5622;50.840;4.948;2022-09-19T03:12:27;10.50;99.90
11136;DHT22;5622;50.840;4.948;2022-09-19T03:14:56;10.50;99.90
11136;DHT22;5622;50.840;4.948;2022-09-19T03:17:29;10.50;99.90
11136;DHT22;5622;50.840;4.948;2022-09-19T03:19:58;10.60;99.90
11136;DHT22;5622;50.840;4.948;2022-09-19T03:22:25;10.50;99.90
11136;DHT22;5622;50.840;4.948;2022-09-19T03:24:52;10.40;99.90
11136;DHT22;5622;50.840;4.948;2022-09-19T03:27:19;10.50;99.90
11136;DHT22;5622;50.840;4.948;2022-09-19T03:29:46;10.50;99.90
11136;DHT22;5622;50.840;4.948;2022-09-19T03:32:13;10.40;99.90
11136;DHT22;5622;50.840;4.948;2022-09-19T03:34:42;10.40;99.90
11136;DHT22;5622;50.840;4.948;2022-09-19T03:37:09;10.40;99.90
11136;DHT22;5622;50.840;4.948;2022-09-19T03:39:37;10.40;99.90
11136;DHT22;5622;50.840;4.948;2022-09-19T03:42:04;10.40;99.90
11136;DHT22;5622;50.840;4.948;2022-09-19T03:44:32;10.40;99.90
11136;DHT22;5622;50.840;4.948;2022-09-19T03:46:59;10.40;99.90
11136;DHT22;5622;50.840;4.948;2022-09-19T03:49:26;10.40;99.90
11136;DHT22;5622;50.840;4.948;2022-09-19T03:51:55;10.40;99.90
11136;DHT22;5622;50.840;4.948;2022-09-19T03:54:25;10.40;99.90
11136;DHT22;5622;50.840;4.948;2022-09-19T03:56:53;10.40;99.90
11136;DHT22;5622;50.840;4.948;2022-09-19T03:59:20;10.40;99.90
11136;DHT22;5622;50.840;4.948;2022-09-19T04:01:47;10.40;99.90
11136;DHT22;5622;50.840;4.948;2022-09-19T04:04:19;10.40;99.90
11136;DHT22;5622;50.840;4.948;2022-09-19T04:06:47;10.40;99.90
11136;DHT22;5622;50.840;4.948;2022-09-19T04:09:15;10.40;99.90
11136;DHT22;5622;50.840;4.948;2022-09-19T04:11:42;10.30;99.90
11136;DHT22;5622;50.840;4.948;2022-09-19T04:14:09;10.40;99.90
11136;DHT22;5622;50.840;4.948;2022-09-19T04:16:36;10.40;99.90
11136;DHT22;5622;50.840;4.948;2022-09-19T04:19:03;10.40;99.90
11136;DHT22;5622;50.840;4.948;2022-09-19T04:21:38;10.40;99.90
11136;DHT22;5622;50.840;4.948;2022-09-19T04:24:07;10.40;99.90
11136;DHT22;5622;50.840;4.948;2022-09-19T04:26:36;10.40;99.90
11136;DHT22;5622;50.840;4.948;2022-09-19T04:29:04;10.30;99.90
11136;DHT22;5622;50.840;4.948;2022-09-19T04:31:32;10.30;99.90
11136;DHT22;5622;50.840;4.948;2022-09-19T04:34:04;10.40;99.90
11136;DHT22;5622;50.840;4.948;2022-09-19T04:36:31;10.30;99.90
11136;DHT22;5622;50.840;4.948;2022-09-19T04:38:59;10.30;99.90
11136;DHT22;5622;50.840;4.948;2022-09-19T04:41:29;10.30;99.90
11136;DHT22;5622;50.840;4.948;2022-09-19T04:44:01;10.30;99.90
11136;DHT22;5622;50.840;4.948;2022-09-19T04:46:29;10.50;99.90
11136;DHT22;5622;50.840;4.948;2022-09-19T04:48:58;10.20;99.90
11136;DHT22;5622;50.840;4.948;2022-09-19T04:51:26;10.30;99.90
11136;DHT22;5622;50.840;4.948;2022-09-19T04:53:56;10.20;99.90
11136;DHT22;5622;50.840;4.948;2022-09-19T04:56:26;10.20;99.90
11136;DHT22;5622;50.840;4.948;2022-09-19T04:58:53;10.20;99.90
11136;DHT22;5622;50.840;4.948;2022-09-19T05:01:21;10.20;99.90
11136;DHT22;5622;50.840;4.948;2022-09-19T05:03:50;10.10;99.90
11136;DHT22;5622;50.840;4.948;2022-09-19T05:06:17;10.10;99.90
11136;DHT22;5622;50.840;4.948;2022-09-19T05:08:44;10.10;99.90
11136;DHT22;5622;50.840;4.948;2022-09-19T05:11:11;10.10;99.90
11136;DHT22;5622;50.840;4.948;2022-09-19T05:13:39;10.10;99.90
11136;DHT22;5622;50.840;4.948;2022-09-19T05:16:07;10.10;99.90
11136;DHT22;5622;50.840;4.948;2022-09-19T05:18:36;10.10;99.90
11136;DHT22;5622;50.840;4.948;2022-09-19T05:21:05;10.10;99.90
11136;DHT22;5622;50.840;4.948;2022-09-19T05:23:34;10.00;99.90
11136;DHT22;5622;50.840;4.948;2022-09-19T05:26:03;10.00;99.90
11136;DHT22;5622;50.840;4.948;2022-09-19T05:28:31;10.00;99.90
11136;DHT22;5622;50.840;4.948;2022-09-19T05:30:58;10.10;99.90
11136;DHT22;5622;50.840;4.948;2022-09-19T05:33:30;10.10;99.90
11136;DHT22;5622;50.840;4.948;2022-09-19T05:36:01;10.00;99.90
11136;DHT22;5622;50.840;4.948;2022-09-19T05:38:29;10.00;99.90
11136;DHT22;5622;50.840;4.948;2022-09-19T05:40:58;10.10;99.90
11136;DHT22;5622;50.840;4.948;2022-09-19T05:43:25;10.10;99.90
11136;DHT22;5622;50.840;4.948;2022-09-19T05:45:53;10.10;99.90
11136;DHT22;5622;50.840;4.948;2022-09-19T05:48:21;10.10;99.90
11136;DHT22;5622;50.840;4.948;2022-09-19T05:50:50;10.10;99.90
11136;DHT22;5622;50.840;4.948;2022-09-19T05:53:20;10.10;99.90
11136;DHT22;5622;50.840;4.948;2022-09-19T05:56:05;10.10;99.90
11136;DHT22;5622;50.840;4.948;2022-09-19T05:58:33;10.10;99.90
11136;DHT22;5622;50.840;4.948;2022-09-19T06:01:03;10.10;99.90
11136;DHT22;5622;50.840;4.948;2022-09-19T06:03:31;10.10;99.90
11136;DHT22;5622;50.840;4.948;2022-09-19T06:05:59;10.10;99.90
11136;DHT22;5622;50.840;4.948;2022-09-19T06:08:28;10.20;99.90
11136;DHT22;5622;50.840;4.948;2022-09-19T06:10:59;10.20;99.90
11136;DHT22;5622;50.840;4.948;2022-09-19T06:13:26;10.30;99.90
11136;DHT22;5622;50.840;4.948;2022-09-19T06:16:14;10.40;99.90
11136;DHT22;5622;50.840;4.948;2022-09-19T06:18:42;10.40;99.90
11136;DHT22;5622;50.840;4.948;2022-09-19T06:21:10;10.40;99.90
11136;DHT22;5622;50.840;4.948;2022-09-19T06:23:39;10.50;99.90
11136;DHT22;5622;50.840;4.948;2022-09-19T06:26:06;10.60;99.90
11136;DHT22;5622;50.840;4.948;2022-09-19T06:28:34;10.60;99.90
11136;DHT22;5622;50.840;4.948;2022-09-19T06:31:03;10.60;99.90
11136;DHT22;5622;50.840;4.948;2022-09-19T06:33:32;10.80;99.90
11136;DHT22;5622;50.840;4.948;2022-09-19T06:36:00;10.70;99.90
11136;DHT22;5622;50.840;4.948;2022-09-19T06:38:28;10.70;99.90
11136;DHT22;5622;50.840;4.948;2022-09-19T06:40:58;10.70;99.90
11136;DHT22;5622;50.840;4.948;2022-09-19T06:43:25;10.70;99.90
11136;DHT22;5622;50.840;4.948;2022-09-19T06:45:53;10.80;99.90
11136;DHT22;5622;50.840;4.948;2022-09-19T06:48:20;10.80;99.90
11136;DHT22;5622;50.840;4.948;2022-09-19T06:50:48;10.80;99.90
11136;DHT22;5622;50.840;4.948;2022-09-19T06:53:16;10.80;99.90
11136;DHT22;5622;50.840;4.948;2022-09-19T06:55:44;10.80;99.90
11136;DHT22;5622;50.840;4.948;2022-09-19T06:58:13;10.80;99.90
11136;DHT22;5622;50.840;4.948;2022-09-19T07:00:41;10.80;99.90
11136;DHT22;5622;50.840;4.948;2022-09-19T07:03:12;10.90;99.90
11136;DHT22;5622;50.840;4.948;2022-09-19T07:05:41;10.90;99.90
11136;DHT22;5622;50.840;4.948;2022-09-19T07:08:09;10.90;99.90
11136;DHT22;5622;50.840;4.948;2022-09-19T07:10:36;11.00;99.90
11136;DHT22;5622;50.840;4.948;2022-09-19T07:13:04;11.00;99.90
11136;DHT22;5622;50.840;4.948;2022-09-19T07:15:35;11.00;99.90
11136;DHT22;5622;50.840;4.948;2022-09-19T07:18:03;11.10;99.90
11136;DHT22;5622;50.840;4.948;2022-09-19T07:20:34;11.00;99.90
11136;DHT22;5622;50.840;4.948;2022-09-19T07:23:04;11.30;99.90
11136;DHT22;5622;50.840;4.948;2022-09-19T07:25:32;11.20;99.90
11136;DHT22;5622;50.840;4.948;2022-09-19T07:28:00;11.10;99.90
11136;DHT22;5622;50.840;4.948;2022-09-19T07:30:28;11.20;99.90
11136;DHT22;5622;50.840;4.948;2022-09-19T07:32:58;11.20;99.90
11136;DHT22;5622;50.840;4.948;2022-09-19T07:35:27;11.20;99.90
11136;DHT22;5622;50.840;4.948;2022-09-19T07:37:55;11.30;99.90
11136;DHT22;5622;50.840;4.948;2022-09-19T07:40:22;11.30;99.90
11136;DHT22;5622;50.840;4.948;2022-09-19T07:42:49;11.30;99.90
11136;DHT22;5622;50.840;4.948;2022-09-19T07:45:17;11.60;99.90
11136;DHT22;5622;50.840;4.948;2022-09-19T07:47:46;11.50;99.90
11136;DHT22;5622;50.840;4.948;2022-09-19T07:50:16;11.40;99.90
11136;DHT22;5622;50.840;4.948;2022-09-19T07:52:44;11.50;99.90
11136;DHT22;5622;50.840;4.948;2022-09-19T07:55:13;11.60;99.90
11136;DHT22;5622;50.840;4.948;2022-09-19T07:57:49;11.70;99.90
11136;DHT22;5622;50.840;4.948;2022-09-19T08:00:17;11.90;99.90
11136;DHT22;5622;50.840;4.948;2022-09-19T08:02:52;12.00;99.90
11136;DHT22;5622;50.840;4.948;2022-09-19T08:05:22;12.40;99.90
11136;DHT22;5622;50.840;4.948;2022-09-19T08:07:49;12.20;99.90
11136;DHT22;5622;50.840;4.948;2022-09-19T08:10:17;12.40;99.90
11136;DHT22;5622;50.840;4.948;2022-09-19T08:12:44;12.60;99.90
11136;DHT22;5622;50.840;4.948;2022-09-19T08:15:12;12.80;99.90
11136;DHT22;5622;50.840;4.948;2022-09-19T08:17:42;13.10;99.90
11136;DHT22;5622;50.840;4.948;2022-09-19T08:20:09;13.20;99.90
11136;DHT22;5622;50.840;4.948;2022-09-19T08:22:41;13.30;99.90
11136;DHT22;5622;50.840;4.948;2022-09-19T08:25:08;13.40;99.90
11136;DHT22;5622;50.840;4.948;2022-09-19T08:27:35;13.40;99.90
11136;DHT22;5622;50.840;4.948;2022-09-19T08:30:04;13.40;99.90
11136;DHT22;5622;50.840;4.948;2022-09-19T08:32:33;13.30;99.90
11136;DHT22;5622;50.840;4.948;2022-09-19T08:35:00;13.30;99.90
11136;DHT22;5622;50.840;4.948;2022-09-19T08:37:29;13.30;99.90
11136;DHT22;5622;50.840;4.948;2022-09-19T08:39:58;13.40;99.90
11136;DHT22;5622;50.840;4.948;2022-09-19T08:42:52;13.30;99.90
11136;DHT22;5622;50.840;4.948;2022-09-19T08:45:27;13.40;99.90
11136;DHT22;5622;50.840;4.948;2022-09-19T08:47:57;13.40;99.90
11136;DHT22;5622;50.840;4.948;2022-09-19T08:50:31;13.40;99.90
11136;DHT22;5622;50.840;4.948;2022-09-19T08:53:02;13.40;99.90
11136;DHT22;5622;50.840;4.948;2022-09-19T08:55:34;13.40;99.90
11136;DHT22;5622;50.840;4.948;2022-09-19T08:58:04;13.50;99.90
11136;DHT22;5622;50.840;4.948;2022-09-19T09:00:38;13.60;99.90
11136;DHT22;5622;50.840;4.948;2022-09-19T09:03:10;13.50;99.90
11136;DHT22;5622;50.840;4.948;2022-09-19T09:05:45;13.60;99.90
11136;DHT22;5622;50.840;4.948;2022-09-19T09:08:26;13.60;99.90
11136;DHT22;5622;50.840;4.948;2022-09-19T09:10:59;13.70;99.90
11136;DHT22;5622;50.840;4.948;2022-09-19T09:13:41;13.70;99.90
11136;DHT22;5622;50.840;4.948;2022-09-19T09:16:17;13.70;99.90
11136;DHT22;5622;50.840;4.948;2022-09-19T09:19:06;13.80;99.90
11136;DHT22;5622;50.840;4.948;2022-09-19T09:21:49;13.80;99.90
11136;DHT22;5622;50.840;4.948;2022-09-19T09:24:28;14.00;99.90
11136;DHT22;5622;50.840;4.948;2022-09-19T09:27:00;14.10;99.90
11136;DHT22;5622;50.840;4.948;2022-09-19T09:29:32;14.10;99.90
11136;DHT22;5622;50.840;4.948;2022-09-19T09:32:04;14.20;99.90
11136;DHT22;5622;50.840;4.948;2022-09-19T09:34:38;14.20;99.90
11136;DHT22;5622;50.840;4.948;2022-09-19T09:37:12;14.30;99.90
11136;DHT22;5622;50.840;4.948;2022-09-19T09:39:45;14.00;99.90
11136;DHT22;5622;50.840;4.948;2022-09-19T09:42:30;14.40;99.90
11136;DHT22;5622;50.840;4.948;2022-09-19T09:45:05;14.50;99.90
11136;DHT22;5622;50.840;4.948;2022-09-19T09:47:41;14.50;99.90
11136;DHT22;5622;50.840;4.948;2022-09-19T09:50:34;14.50;99.90
11136;DHT22;5622;50.840;4.948;2022-09-19T09:53:11;14.50;99.90
11136;DHT22;5622;50.840;4.948;2022-09-19T09:55:49;14.50;99.90
11136;DHT22;5622;50.840;4.948;2022-09-19T09:58:44;14.40;99.90
11136;DHT22;5622;50.840;4.948;2022-09-19T10:01:21;14.40;99.90
11136;DHT22;5622;50.840;4.948;2022-09-19T10:04:14;14.40;99.90
11136;DHT22;5622;50.840;4.948;2022-09-19T10:06:46;14.40;99.90
11136;DHT22;5622;50.840;4.948;2022-09-19T10:09:21;14.40;99.90
11136;DHT22;5622;50.840;4.948;2022-09-19T10:11:53;14.50;99.90
11136;DHT22;5622;50.840;4.948;2022-09-19T10:14:25;14.40;99.90
11136;DHT22;5622;50.840;4.948;2022-09-19T10:16:55;14.50;99.90
11136;DHT22;5622;50.840;4.948;2022-09-19T10:19:29;14.50;99.90
11136;DHT22;5622;50.840;4.948;2022-09-19T10:21:57;14.40;99.90
11136;DHT22;5622;50.840;4.948;2022-09-19T10:24:43;14.60;99.90
11136;DHT22;5622;50.840;4.948;2022-09-19T10:27:12;14.70;99.90
11136;DHT22;5622;50.840;4.948;2022-09-19T10:29:55;14.80;99.90
11136;DHT22;5622;50.840;4.948;2022-09-19T10:32:25;15.00;99.90
11136;DHT22;5622;50.840;4.948;2022-09-19T10:38:16;15.20;99.90
11136;DHT22;5622;50.840;4.948;2022-09-19T10:40:53;15.20;99.90
11136;DHT22;5622;50.840;4.948;2022-09-19T10:43:23;15.20;99.90
11136;DHT22;5622;50.840;4.948;2022-09-19T10:45:54;15.30;99.90
11136;DHT22;5622;50.840;4.948;2022-09-19T10:48:25;15.40;99.90
11136;DHT22;5622;50.840;4.948;2022-09-19T10:50:53;15.40;99.90
11136;DHT22;5622;50.840;4.948;2022-09-19T10:53:32;15.40;99.90
11136;DHT22;5622;50.840;4.948;2022-09-19T10:56:02;15.50;99.90
11136;DHT22;5622;50.840;4.948;2022-09-19T10:58:31;15.50;99.90
11136;DHT22;5622;50.840;4.948;2022-09-19T11:01:19;15.60;99.90
11136;DHT22;5622;50.840;4.948;2022-09-19T11:03:57;15.50;99.90
11136;DHT22;5622;50.840;4.948;2022-09-19T11:06:28;15.50;99.90
11136;DHT22;5622;50.840;4.948;2022-09-19T11:08:56;15.50;99.90
11136;DHT22;5622;50.840;4.948;2022-09-19T11:11:29;15.40;99.90
11136;DHT22;5622;50.840;4.948;2022-09-19T11:14:19;15.40;99.90
11136;DHT22;5622;50.840;4.948;2022-09-19T11:20:14;15.30;99.90
11136;DHT22;5622;50.840;4.948;2022-09-19T11:23:14;15.30;99.90
11136;DHT22;5622;50.840;4.948;2022-09-19T11:25:51;15.20;99.90
11136;DHT22;5622;50.840;4.948;2022-09-19T11:28:31;15.10;99.90
11136;DHT22;5622;50.840;4.948;2022-09-19T11:31:08;15.10;99.90
11136;DHT22;5622;50.840;4.948;2022-09-19T11:33:46;15.10;99.90
11136;DHT22;5622;50.840;4.948;2022-09-19T11:36:28;15.10;99.90
11136;DHT22;5622;50.840;4.948;2022-09-19T11:39:04;15.10;99.90
11136;DHT22;5622;50.840;4.948;2022-09-19T11:41:41;15.10;99.90
11136;DHT22;5622;50.840;4.948;2022-09-19T11:44:28;15.20;99.90
11136;DHT22;5622;50.840;4.948;2022-09-19T11:47:05;15.20;99.90
11136;DHT22;5622;50.840;4.948;2022-09-19T11:49:57;15.20;99.90
11136;DHT22;5622;50.840;4.948;2022-09-19T11:52:33;15.20;99.90
11136;DHT22;5622;50.840;4.948;2022-09-19T11:55:13;15.20;99.90
11136;DHT22;5622;50.840;4.948;2022-09-19T11:57:46;15.20;99.90
11136;DHT22;5622;50.840;4.948;2022-09-19T12:00:21;15.20;99.90
11136;DHT22;5622;50.840;4.948;2022-09-19T12:06:07;15.10;99.90
11136;DHT22;5622;50.840;4.948;2022-09-19T12:08:46;15.10;99.90
11136;DHT22;5622;50.840;4.948;2022-09-19T12:11:26;15.00;99.90
11136;DHT22;5622;50.840;4.948;2022-09-19T12:13:57;14.80;99.90
11136;DHT22;5622;50.840;4.948;2022-09-19T12:16:34;14.60;99.90
11136;DHT22;5622;50.840;4.948;2022-09-19T12:19:08;14.50;99.90
11136;DHT22;5622;50.840;4.948;2022-09-19T12:21:41;14.40;99.90
11136;DHT22;5622;50.840;4.948;2022-09-19T12:24:14;14.30;99.90
11136;DHT22;5622;50.840;4.948;2022-09-19T12:27:02;14.20;99.90
11136;DHT22;5622;50.840;4.948;2022-09-19T12:29:36;14.20;99.90
11136;DHT22;5622;50.840;4.948;2022-09-19T12:32:09;14.20;99.90
11136;DHT22;5622;50.840;4.948;2022-09-19T12:34:44;14.20;99.90
11136;DHT22;5622;50.840;4.948;2022-09-19T12:37:20;14.20;99.90
11136;DHT22;5622;50.840;4.948;2022-09-19T12:39:55;14.30;99.90
11136;DHT22;5622;50.840;4.948;2022-09-19T12:42:28;14.30;99.90
11136;DHT22;5622;50.840;4.948;2022-09-19T12:45:03;14.30;99.90
11136;DHT22;5622;50.840;4.948;2022-09-19T12:47:41;14.40;99.90
11136;DHT22;5622;50.840;4.948;2022-09-19T12:50:19;14.50;99.90
11136;DHT22;5622;50.840;4.948;2022-09-19T12:53:02;14.50;99.90
11136;DHT22;5622;50.840;4.948;2022-09-19T12:55:35;14.60;99.90
11136;DHT22;5622;50.840;4.948;2022-09-19T12:58:10;14.70;99.90
11136;DHT22;5622;50.840;4.948;2022-09-19T13:00:42;14.60;99.90
11136;DHT22;5622;50.840;4.948;2022-09-19T13:03:15;14.70;99.90
11136;DHT22;5622;50.840;4.948;2022-09-19T13:05:48;14.70;99.90
11136;DHT22;5622;50.840;4.948;2022-09-19T13:08:21;14.70;99.90
11136;DHT22;5622;50.840;4.948;2022-09-19T13:10:54;14.70;99.90
11136;DHT22;5622;50.840;4.948;2022-09-19T13:13:29;14.80;99.90
11136;DHT22;5622;50.840;4.948;2022-09-19T13:15:59;14.80;99.90
11136;DHT22;5622;50.840;4.948;2022-09-19T13:18:27;14.80;99.90
11136;DHT22;5622;50.840;4.948;2022-09-19T13:21:15;14.90;99.90
11136;DHT22;5622;50.840;4.948;2022-09-19T13:24:05;14.90;99.90
11136;DHT22;5622;50.840;4.948;2022-09-19T13:26:34;14.90;99.90
11136;DHT22;5622;50.840;4.948;2022-09-19T13:29:04;14.90;99.90
11136;DHT22;5622;50.840;4.948;2022-09-19T13:31:58;14.90;99.90
11136;DHT22;5622;50.840;4.948;2022-09-19T13:34:38;14.90;99.90
11136;DHT22;5622;50.840;4.948;2022-09-19T13:37:46;14.80;99.90
11136;DHT22;5622;50.840;4.948;2022-09-19T13:40:32;14.70;99.90
11136;DHT22;5622;50.840;4.948;2022-09-19T13:43:17;14.80;99.90
11136;DHT22;5622;50.840;4.948;2022-09-19T13:45:50;14.80;99.90
11136;DHT22;5622;50.840;4.948;2022-09-19T13:48:25;14.80;99.90
11136;DHT22;5622;50.840;4.948;2022-09-19T13:50:59;14.90;99.90
11136;DHT22;5622;50.840;4.948;2022-09-19T13:53:31;14.90;99.90
11136;DHT22;5622;50.840;4.948;2022-09-19T13:56:04;14.80;99.90
11136;DHT22;5622;50.840;4.948;2022-09-19T13:58:45;14.80;99.90
11136;DHT22;5622;50.840;4.948;2022-09-19T14:01:18;14.80;99.90
11136;DHT22;5622;50.840;4.948;2022-09-19T14:03:54;14.90;99.90
11136;DHT22;5622;50.840;4.948;2022-09-19T14:06:43;14.90;99.90
11136;DHT22;5622;50.840;4.948;2022-09-19T14:09:19;15.00;99.90
11136;DHT22;5622;50.840;4.948;2022-09-19T14:11:48;15.20;99.90
11136;DHT22;5622;50.840;4.948;2022-09-19T14:17:28;15.40;99.90
11136;DHT22;5622;50.840;4.948;2022-09-19T14:19:59;15.40;99.90
11136;DHT22;5622;50.840;4.948;2022-09-19T14:22:41;15.40;99.90
11136;DHT22;5622;50.840;4.948;2022-09-19T14:25:21;15.40;99.90
11136;DHT22;5622;50.840;4.948;2022-09-19T14:31:09;15.30;99.90
11136;DHT22;5622;50.840;4.948;2022-09-19T14:40:21;15.60;99.90
11136;DHT22;5622;50.840;4.948;2022-09-19T14:48:50;15.70;99.90
11136;DHT22;5622;50.840;4.948;2022-09-19T14:51:34;15.70;99.90
11136;DHT22;5622;50.840;4.948;2022-09-19T14:54:11;15.70;99.90
11136;DHT22;5622;50.840;4.948;2022-09-19T14:56:51;15.70;99.90
11136;DHT22;5622;50.840;4.948;2022-09-19T14:59:19;15.80;99.90
11136;DHT22;5622;50.840;4.948;2022-09-19T15:01:48;15.80;99.90
11136;DHT22;5622;50.840;4.948;2022-09-19T15:04:25;15.80;99.90
11136;DHT22;5622;50.840;4.948;2022-09-19T15:06:54;15.80;99.90
11136;DHT22;5622;50.840;4.948;2022-09-19T15:09:27;15.80;99.90
11136;DHT22;5622;50.840;4.948;2022-09-19T15:11:55;15.80;99.90
11136;DHT22;5622;50.840;4.948;2022-09-19T15:14:25;15.80;99.90
11136;DHT22;5622;50.840;4.948;2022-09-19T15:17:07;15.80;99.90
11136;DHT22;5622;50.840;4.948;2022-09-19T15:19:40;15.70;99.90
11136;DHT22;5622;50.840;4.948;2022-09-19T15:22:22;15.80;99.90
11136;DHT22;5622;50.840;4.948;2022-09-19T15:24:51;15.80;99.90
11136;DHT22;5622;50.840;4.948;2022-09-19T15:27:20;15.80;99.90
11136;DHT22;5622;50.840;4.948;2022-09-19T15:29:49;15.80;99.90
11136;DHT22;5622;50.840;4.948;2022-09-19T15:32:22;15.80;99.90
11136;DHT22;5622;50.840;4.948;2022-09-19T15:34:54;15.80;99.90
11136;DHT22;5622;50.840;4.948;2022-09-19T15:37:24;15.70;99.90
11136;DHT22;5622;50.840;4.948;2022-09-19T15:39:53;15.70;99.90
11136;DHT22;5622;50.840;4.948;2022-09-19T15:42:20;15.60;99.90
11136;DHT22;5622;50.840;4.948;2022-09-19T15:44:48;15.70;99.90
11136;DHT22;5622;50.840;4.948;2022-09-19T15:47:19;15.70;99.90
11136;DHT22;5622;50.840;4.948;2022-09-19T15:49:49;15.70;99.90
11136;DHT22;5622;50.840;4.948;2022-09-19T15:52:28;15.70;99.90
11136;DHT22;5622;50.840;4.948;2022-09-19T15:54:57;15.80;99.90
11136;DHT22;5622;50.840;4.948;2022-09-19T15:57:27;15.80;99.90
11136;DHT22;5622;50.840;4.948;2022-09-19T16:00:05;15.80;99.90
11136;DHT22;5622;50.840;4.948;2022-09-19T16:02:36;15.90;99.90
11136;DHT22;5622;50.840;4.948;2022-09-19T16:05:14;15.90;99.90
11136;DHT22;5622;50.840;4.948;2022-09-19T16:07:48;15.90;99.90
11136;DHT22;5622;50.840;4.948;2022-09-19T16:10:39;15.80;99.90
11136;DHT22;5622;50.840;4.948;2022-09-19T16:13:32;15.90;99.90
11136;DHT22;5622;50.840;4.948;2022-09-19T16:15:59;15.90;99.90
11136;DHT22;5622;50.840;4.948;2022-09-19T16:18:27;15.90;99.90
11136;DHT22;5622;50.840;4.948;2022-09-19T16:21:01;15.80;99.90
11136;DHT22;5622;50.840;4.948;2022-09-19T16:23:40;15.80;99.90
11136;DHT22;5622;50.840;4.948;2022-09-19T16:26:09;15.80;99.90
11136;DHT22;5622;50.840;4.948;2022-09-19T16:28:38;15.70;99.90
11136;DHT22;5622;50.840;4.948;2022-09-19T16:31:22;15.70;99.90
11136;DHT22;5622;50.840;4.948;2022-09-19T16:33:51;15.70;99.90
11136;DHT22;5622;50.840;4.948;2022-09-19T16:36:19;15.60;99.90
11136;DHT22;5622;50.840;4.948;2022-09-19T16:42:03;15.50;99.90
11136;DHT22;5622;50.840;4.948;2022-09-19T16:44:36;15.50;99.90
11136;DHT22;5622;50.840;4.948;2022-09-19T16:47:11;15.40;99.90
11136;DHT22;5622;50.840;4.948;2022-09-19T16:49:40;15.40;99.90
11136;DHT22;5622;50.840;4.948;2022-09-19T16:52:14;15.40;99.90
11136;DHT22;5622;50.840;4.948;2022-09-19T16:54:43;15.30;99.90